Allensville, Pennsylvania
Current Conditions -  °F | °C
As of 5:53 PM on Wednesday 17 Dec 2014 (Local Time) from KUNV Reporting Station
Overcast Overcast  
Wind Chill: -6°   Ceiling: 3100
Heat Index:   Visibility: 10mi
Dew Point: -6°   Wind: 23mph
Humidity: 60%   Direction: 290°WNW
Pressure: 30"   Gusts: NA
Location:  40.54°N, 77.82°W
Report Text: KUNV 172253Z 29020KT 10SM OVC031 01/M06 A3000
Loading
Personal Weather Stations






























Interactive Weather Map New forecast layout! Learn more

10-Day Weather Forecast

Advertisements
Track Severe Weather on mobile